createdAt,value
2022-09-28T00:01:45.591Z,7.20
2022-09-28T00:04:12.956Z,7.20
2022-09-28T00:06:40.291Z,7.10
2022-09-28T00:09:07.732Z,7.20
2022-09-28T00:11:35.417Z,7.20
2022-09-28T00:14:03.873Z,7.20
2022-09-28T00:16:35.283Z,7.10
2022-09-28T00:19:03.467Z,7.20
2022-09-28T00:21:33.255Z,7.10
2022-09-28T00:24:18.661Z,7.00
2022-09-28T00:26:55.005Z,7.00
2022-09-28T00:29:36.857Z,6.90
2022-09-28T00:32:11.600Z,6.80
2022-09-28T00:34:43.271Z,6.80
2022-09-28T00:37:10.861Z,6.70
2022-09-28T00:39:41.259Z,6.70
2022-09-28T00:42:21.136Z,6.70
2022-09-28T00:44:51.394Z,6.80
2022-09-28T00:47:29.697Z,6.80
2022-09-28T00:50:21.541Z,6.80
2022-09-28T00:52:53.601Z,6.90
2022-09-28T00:55:50.039Z,6.90
2022-09-28T00:58:24.110Z,6.90
2022-09-28T01:00:52.590Z,6.90
2022-09-28T01:03:20.168Z,6.90
2022-09-28T01:05:50.584Z,7.00
2022-09-28T01:08:21.023Z,7.00
2022-09-28T01:10:49.780Z,7.10
2022-09-28T01:13:19.658Z,7.10
2022-09-28T01:15:53.428Z,7.10
2022-09-28T01:18:54.274Z,7.20
2022-09-28T01:21:23.816Z,7.30
2022-09-28T01:24:10.841Z,7.30
2022-09-28T01:26:44.557Z,7.40
2022-09-28T01:29:29.839Z,7.40
2022-09-28T01:32:23.874Z,7.40
2022-09-28T01:34:56.728Z,7.50
2022-09-28T01:37:32.317Z,7.50
2022-09-28T01:40:03.154Z,7.50
2022-09-28T01:42:37.758Z,7.60
2022-09-28T01:45:14.290Z,7.60
2022-09-28T01:47:43.179Z,7.60
2022-09-28T01:50:15.437Z,7.60
2022-09-28T01:52:51.688Z,7.60
2022-09-28T01:55:31.259Z,7.60
2022-09-28T01:58:07.809Z,7.60
2022-09-28T02:00:38.305Z,7.50
2022-09-28T02:03:16.788Z,7.50
2022-09-28T02:05:57.035Z,7.50
2022-09-28T02:08:34.949Z,7.40
2022-09-28T02:11:16.493Z,7.30
2022-09-28T02:13:55.186Z,7.20
2022-09-28T02:16:43.969Z,7.00
2022-09-28T02:19:38.344Z,6.90
2022-09-28T02:22:25.420Z,6.80
2022-09-28T02:24:56.880Z,6.80
2022-09-28T02:27:38.920Z,6.90
2022-09-28T02:30:07.712Z,7.00
2022-09-28T02:32:40.237Z,7.10
2022-09-28T02:35:15.223Z,7.20
2022-09-28T02:37:43.189Z,7.30
2022-09-28T02:40:16.040Z,7.30
2022-09-28T02:42:57.602Z,7.30
2022-09-28T02:45:48.195Z,7.20
2022-09-28T02:48:49.182Z,7.20
2022-09-28T02:51:32.262Z,7.20
2022-09-28T02:54:50.682Z,7.30
2022-09-28T02:57:48.319Z,7.40
2022-09-28T03:00:19.655Z,7.50
2022-09-28T03:03:17.521Z,7.50
2022-09-28T03:06:02.251Z,7.60
2022-09-28T03:08:48.940Z,7.60
2022-09-28T03:11:28.733Z,7.70
2022-09-28T03:13:56.908Z,7.70
2022-09-28T03:16:32.371Z,7.70
2022-09-28T03:18:59.844Z,7.70
2022-09-28T03:21:27.112Z,7.70
2022-09-28T03:23:54.350Z,7.70
2022-09-28T03:26:21.609Z,7.70
2022-09-28T03:28:48.860Z,7.80
2022-09-28T03:31:22.740Z,7.80
2022-09-28T03:33:51.438Z,7.80
2022-09-28T03:36:18.947Z,7.70
2022-09-28T03:38:46.311Z,7.60
2022-09-28T03:41:13.793Z,7.50
2022-09-28T03:43:43.174Z,7.50
2022-09-28T03:46:12.778Z,7.50
2022-09-28T03:48:45.048Z,7.60
2022-09-28T03:51:13.164Z,7.60
2022-09-28T03:53:40.820Z,7.70
2022-09-28T03:56:12.173Z,7.70
2022-09-28T03:58:40.517Z,7.70
2022-09-28T04:01:16.595Z,7.70
2022-09-28T04:03:46.506Z,7.70
2022-09-28T04:06:15.111Z,7.70
2022-09-28T04:08:43.260Z,7.80
2022-09-28T04:11:11.175Z,7.80
2022-09-28T04:13:38.452Z,7.70
2022-09-28T04:16:09.639Z,7.80
2022-09-28T04:18:37.065Z,7.70
2022-09-28T04:21:24.737Z,7.60
2022-09-28T04:24:01.317Z,7.40
2022-09-28T04:26:28.690Z,7.30
2022-09-28T04:29:15.661Z,7.20
2022-09-28T04:32:03.145Z,7.30
2022-09-28T04:34:38.678Z,7.40
2022-09-28T04:37:08.089Z,7.40
2022-09-28T04:39:35.388Z,7.40
2022-09-28T04:42:02.793Z,7.50
2022-09-28T04:44:30.109Z,7.50
2022-09-28T04:47:05.193Z,7.60
2022-09-28T04:49:35.286Z,7.70
2022-09-28T04:52:18.533Z,7.60
2022-09-28T04:54:48.827Z,7.60
2022-09-28T04:57:16.986Z,7.40
2022-09-28T04:59:44.512Z,7.40
2022-09-28T05:02:15.128Z,7.40
2022-09-28T05:05:01.160Z,7.50
2022-09-28T05:08:03.663Z,7.50
2022-09-28T05:10:31.006Z,7.40
2022-09-28T05:12:58.239Z,7.40
2022-09-28T05:15:25.567Z,7.40
2022-09-28T05:17:53.816Z,7.40
2022-09-28T05:20:29.208Z,7.50
2022-09-28T05:22:56.856Z,7.50
2022-09-28T05:25:24.801Z,7.50
2022-09-28T05:28:23.819Z,7.50
2022-09-28T05:31:09.497Z,7.60
2022-09-28T05:33:51.206Z,7.60
2022-09-28T05:36:18.477Z,7.60
2022-09-28T05:38:46.248Z,7.60
2022-09-28T05:41:14.387Z,7.70
2022-09-28T05:43:41.727Z,7.70
2022-09-28T05:46:09.014Z,7.70
2022-09-28T05:48:39.550Z,7.80
2022-09-28T05:51:07.537Z,7.80
2022-09-28T05:53:35.392Z,7.80
2022-09-28T05:56:03.150Z,7.80
2022-09-28T05:58:32.418Z,7.80
2022-09-28T06:01:00.245Z,8.00
2022-09-28T06:03:27.560Z,8.00
2022-09-28T06:05:54.907Z,8.10
2022-09-28T06:08:22.300Z,8.10
2022-09-28T06:11:01.404Z,8.10
2022-09-28T06:13:29.431Z,8.20
2022-09-28T06:15:56.771Z,8.20
2022-09-28T06:18:24.339Z,8.30
2022-09-28T06:21:11.292Z,8.30
2022-09-28T06:23:48.214Z,8.30
2022-09-28T06:26:17.349Z,8.20
2022-09-28T06:28:45.420Z,8.20
2022-09-28T06:31:12.732Z,8.30
2022-09-28T06:33:49.373Z,8.50
2022-09-28T06:36:18.519Z,8.50
2022-09-28T06:38:46.412Z,8.60
2022-09-28T06:41:15.544Z,8.70
2022-09-28T06:43:46.081Z,8.90
2022-09-28T06:46:14.168Z,9.10
2022-09-28T06:48:50.367Z,9.20
2022-09-28T06:51:33.415Z,9.30
2022-09-28T06:54:19.746Z,9.30
2022-09-28T06:56:58.024Z,9.40
2022-09-28T06:59:25.381Z,9.70
2022-09-28T07:01:53.885Z,9.80
2022-09-28T07:04:52.406Z,9.80
2022-09-28T07:07:50.153Z,9.80
2022-09-28T07:10:45.974Z,10.10
2022-09-28T07:13:51.163Z,10.40
2022-09-28T07:16:26.419Z,10.70
2022-09-28T07:18:55.510Z,10.70
2022-09-28T07:21:29.651Z,10.80
2022-09-28T07:24:01.026Z,10.90
2022-09-28T07:26:51.041Z,11.00
2022-09-28T07:29:34.228Z,10.90
2022-09-28T07:32:18.314Z,11.10
2022-09-28T07:35:09.087Z,11.50
2022-09-28T07:38:02.538Z,11.40
2022-09-28T07:40:50.412Z,11.50
2022-09-28T07:43:21.946Z,11.10
2022-09-28T07:45:54.098Z,11.20
2022-09-28T07:48:22.393Z,11.20
2022-09-28T07:51:00.844Z,11.20
2022-09-28T07:53:34.524Z,10.90
2022-09-28T07:56:34.780Z,11.00
2022-09-28T07:59:17.468Z,11.80
2022-09-28T08:02:03.212Z,12.20
2022-09-28T08:04:30.915Z,12.20
2022-09-28T08:06:59.682Z,12.90
2022-09-28T08:17:13.706Z,13.50
2022-09-28T08:20:04.006Z,13.10
2022-09-28T08:22:32.251Z,14.40
2022-09-28T08:25:00.643Z,14.60
2022-09-28T08:28:02.323Z,14.00
2022-09-28T08:30:32.392Z,13.60
2022-09-28T08:33:29.479Z,16.10
2022-09-28T08:36:15.489Z,17.00
2022-09-28T08:39:01.287Z,18.70
2022-09-28T08:41:54.223Z,18.60
2022-09-28T08:48:41.820Z,16.00
2022-09-28T08:51:31.590Z,15.10
2022-09-28T08:54:42.166Z,14.30
2022-09-28T08:57:24.590Z,14.10
2022-09-28T08:59:55.680Z,14.30
2022-09-28T09:02:34.205Z,14.10
2022-09-28T09:05:19.088Z,14.00
2022-09-28T09:08:44.813Z,14.90
2022-09-28T09:11:44.368Z,15.30
2022-09-28T09:14:39.111Z,16.10
2022-09-28T09:17:32.271Z,16.60
2022-09-28T09:20:40.047Z,15.60
2022-09-28T09:23:20.750Z,14.30
2022-09-28T09:25:50.953Z,13.90
2022-09-28T09:28:26.487Z,13.40
2022-09-28T09:31:22.924Z,13.00
2022-09-28T09:34:06.961Z,13.00
2022-09-28T09:36:54.902Z,12.90
2022-09-28T09:40:21.713Z,13.20
2022-09-28T09:43:45.251Z,13.50
2022-09-28T09:46:49.766Z,14.90
2022-09-28T09:49:43.903Z,17.70
2022-09-28T09:52:55.149Z,20.10
2022-09-28T09:55:32.850Z,18.20
2022-09-28T09:58:40.747Z,16.40
2022-09-28T10:01:29.491Z,16.40
2022-09-28T10:04:28.074Z,17.00
2022-09-28T10:07:05.253Z,15.80
2022-09-28T10:09:42.275Z,16.80
2022-09-28T10:12:33.064Z,16.50
2022-09-28T10:15:03.325Z,15.50
2022-09-28T10:17:34.440Z,14.50
2022-09-28T10:20:20.248Z,14.10
2022-09-28T10:23:24.297Z,16.60
2022-09-28T10:25:55.009Z,19.70
2022-09-28T10:28:32.774Z,20.00
2022-09-28T10:31:00.169Z,20.50
2022-09-28T10:33:36.813Z,21.20
2022-09-28T10:36:07.230Z,23.70
2022-09-28T10:38:35.173Z,24.20
2022-09-28T10:41:13.621Z,21.80
2022-09-28T10:44:06.972Z,18.80
2022-09-28T10:47:05.001Z,17.80
2022-09-28T10:49:47.257Z,17.50
2022-09-28T10:52:35.010Z,17.20
2022-09-28T10:55:25.011Z,17.30
2022-09-28T10:57:53.066Z,16.50
2022-09-28T11:00:38.967Z,15.70
2022-09-28T11:03:24.072Z,15.30
2022-09-28T11:06:07.152Z,14.90
2022-09-28T11:08:42.717Z,14.90
2022-09-28T11:11:16.599Z,14.70
2022-09-28T11:13:57.704Z,14.40
2022-09-28T11:16:36.412Z,14.40
2022-09-28T11:19:29.537Z,14.80
2022-09-28T11:21:56.945Z,14.80
2022-09-28T11:24:34.082Z,15.20
2022-09-28T11:27:04.173Z,15.10
2022-09-28T11:29:41.779Z,15.40
2022-09-28T11:32:23.084Z,15.80
2022-09-28T11:35:19.765Z,16.10
2022-09-28T11:37:53.720Z,15.90
2022-09-28T11:41:04.138Z,15.50
2022-09-28T11:43:46.226Z,15.50
2022-09-28T11:46:26.206Z,15.80
2022-09-28T11:49:03.780Z,15.90
2022-09-28T11:51:40.921Z,15.90
2022-09-28T11:54:21.848Z,15.50
2022-09-28T11:56:51.216Z,15.00
2022-09-28T11:59:31.531Z,15.00
2022-09-28T12:02:15.579Z,14.80
2022-09-28T12:04:57.696Z,14.60
2022-09-28T12:07:36.705Z,14.70
2022-09-28T12:10:19.523Z,14.80
2022-09-28T12:12:51.745Z,15.10
2022-09-28T12:15:23.930Z,15.30
2022-09-28T12:18:14.382Z,15.60
2022-09-28T12:21:16.985Z,15.60
2022-09-28T12:23:46.036Z,15.60
2022-09-28T12:26:37.238Z,15.40
2022-09-28T12:29:20.545Z,15.20
2022-09-28T12:31:57.189Z,15.10
2022-09-28T12:34:24.483Z,14.90
2022-09-28T12:37:10.273Z,14.90
2022-09-28T12:39:56.369Z,14.80
2022-09-28T12:42:45.996Z,15.00
2022-09-28T12:45:47.871Z,15.30
2022-09-28T12:49:03.063Z,15.50
2022-09-28T12:51:53.922Z,16.20
2022-09-28T12:54:38.752Z,16.70
2022-09-28T12:57:36.888Z,16.80
2022-09-28T13:00:15.874Z,17.00
2022-09-28T13:03:01.377Z,16.60
2022-09-28T13:05:47.222Z,16.40
2022-09-28T13:08:30.025Z,16.40
2022-09-28T13:11:23.403Z,16.30
2022-09-28T13:14:16.404Z,16.20
2022-09-28T13:16:57.232Z,16.30
2022-09-28T13:19:55.334Z,16.40
2022-09-28T13:22:49.544Z,16.80
2022-09-28T13:25:20.705Z,16.90
2022-09-28T13:27:56.620Z,16.70
2022-09-28T13:30:25.653Z,16.60
2022-09-28T13:32:57.517Z,16.40
2022-09-28T13:35:25.453Z,16.20
2022-09-28T13:38:17.699Z,16.20
2022-09-28T13:41:03.908Z,16.30
2022-09-28T13:43:41.628Z,16.60
2022-09-28T13:46:21.464Z,17.00
2022-09-28T13:48:56.045Z,17.10
2022-09-28T13:51:39.232Z,17.10
2022-09-28T13:54:29.777Z,16.80
2022-09-28T13:57:25.287Z,16.90
2022-09-28T14:00:01.618Z,16.90
2022-09-28T14:03:05.058Z,17.10
2022-09-28T14:05:46.191Z,16.90
2022-09-28T14:08:38.412Z,16.60
2022-09-28T14:11:40.101Z,15.80
2022-09-28T14:14:11.834Z,14.90
2022-09-28T14:16:40.978Z,14.30
2022-09-28T14:19:26.509Z,14.00
2022-09-28T14:22:24.522Z,13.70
2022-09-28T14:25:17.105Z,13.20
2022-09-28T14:28:02.755Z,11.70
2022-09-28T14:30:42.381Z,11.00
2022-09-28T14:33:26.140Z,11.00
2022-09-28T14:35:58.240Z,10.90
2022-09-28T14:38:51.145Z,11.00
2022-09-28T14:41:36.328Z,11.10
2022-09-28T14:44:05.278Z,11.00
2022-09-28T14:46:37.850Z,10.80
2022-09-28T14:49:19.440Z,10.70
2022-09-28T14:51:58.620Z,10.50
2022-09-28T14:54:53.271Z,10.50
2022-09-28T14:57:24.345Z,10.40
2022-09-28T14:59:51.808Z,10.30
2022-09-28T15:02:24.762Z,10.40
2022-09-28T15:05:10.769Z,10.50
2022-09-28T15:07:51.719Z,10.50
2022-09-28T15:10:42.007Z,10.60
2022-09-28T15:13:25.674Z,10.70
2022-09-28T15:16:05.392Z,10.90
2022-09-28T15:18:56.899Z,10.90
2022-09-28T15:21:31.641Z,11.10
2022-09-28T15:23:58.977Z,11.10
2022-09-28T15:26:30.880Z,11.00
2022-09-28T15:28:59.410Z,11.00
2022-09-28T15:31:28.372Z,11.00
2022-09-28T15:34:14.230Z,10.80
2022-09-28T15:36:46.354Z,10.80
2022-09-28T15:39:24.406Z,10.70
2022-09-28T15:41:52.318Z,10.60
2022-09-28T15:44:29.530Z,10.50
2022-09-28T15:47:13.821Z,10.40
2022-09-28T15:49:57.081Z,10.50
2022-09-28T15:52:36.388Z,10.50
2022-09-28T15:55:26.148Z,10.40
2022-09-28T15:58:19.139Z,10.60
2022-09-28T16:00:48.476Z,10.90
2022-09-28T16:03:28.471Z,11.00
2022-09-28T16:05:58.423Z,11.10
2022-09-28T16:08:37.216Z,11.10
2022-09-28T16:11:10.785Z,11.10
2022-09-28T16:13:51.978Z,10.80
2022-09-28T16:16:28.138Z,10.80
2022-09-28T16:18:58.505Z,10.80
2022-09-28T16:21:43.545Z,10.70
2022-09-28T16:24:23.142Z,10.70
2022-09-28T16:26:57.713Z,10.70
2022-09-28T16:29:32.347Z,10.60
2022-09-28T16:32:25.585Z,10.60
2022-09-28T16:35:16.449Z,10.50
2022-09-28T16:37:44.388Z,10.30
2022-09-28T16:40:14.972Z,10.20
2022-09-28T16:42:48.906Z,10.20
2022-09-28T16:45:20.497Z,10.10
2022-09-28T16:47:52.766Z,10.10
2022-09-28T16:50:21.550Z,10.00
2022-09-28T16:53:34.017Z,9.90
2022-09-28T16:56:02.437Z,9.70
2022-09-28T16:58:31.510Z,9.60
2022-09-28T17:00:59.884Z,9.40
2022-09-28T17:03:28.588Z,9.40
2022-09-28T17:05:56.720Z,9.30
2022-09-28T17:08:25.007Z,9.20
2022-09-28T17:13:45.743Z,9.10
2022-09-28T17:16:17.769Z,9.00
2022-09-28T17:18:45.961Z,8.80
2022-09-28T17:21:16.097Z,8.80
2022-09-28T17:23:44.274Z,8.80
2022-09-28T17:26:30.203Z,8.70
2022-09-28T17:29:06.730Z,8.70
2022-09-28T17:31:34.122Z,8.60
2022-09-28T17:34:01.641Z,8.60
2022-09-28T17:36:30.372Z,8.50
2022-09-28T17:38:58.217Z,8.50
2022-09-28T17:41:25.592Z,8.40
2022-09-28T17:43:52.858Z,8.40
2022-09-28T17:46:30.334Z,8.30
2022-09-28T17:49:01.937Z,8.20
2022-09-28T17:51:32.235Z,8.10
2022-09-28T17:54:00.991Z,8.10
2022-09-28T17:56:32.162Z,8.00
2022-09-28T17:59:17.296Z,7.90
2022-09-28T18:01:44.860Z,7.90
2022-09-28T18:04:33.326Z,8.00
2022-09-28T18:07:00.764Z,8.00
2022-09-28T18:09:28.131Z,8.00
2022-09-28T18:12:00.880Z,8.10
2022-09-28T18:14:28.518Z,8.00
2022-09-28T18:16:56.115Z,8.10
2022-09-28T18:19:23.472Z,8.10
2022-09-28T18:21:50.797Z,8.20
2022-09-28T18:24:18.424Z,8.10
2022-09-28T18:26:45.734Z,8.20
2022-09-28T18:29:13.042Z,8.30
2022-09-28T18:31:40.252Z,8.30
2022-09-28T18:34:07.524Z,8.30
2022-09-28T18:36:35.813Z,8.20
2022-09-28T18:39:03.361Z,8.20
2022-09-28T18:41:30.749Z,8.10
2022-09-28T18:44:00.767Z,8.10
2022-09-28T18:46:29.674Z,8.10
2022-09-28T18:48:57.301Z,8.00
2022-09-28T18:51:24.545Z,8.10
2022-09-28T18:53:52.257Z,7.90
2022-09-28T18:56:20.859Z,7.80
2022-09-28T18:58:51.516Z,7.70
2022-09-28T19:01:35.981Z,7.60
2022-09-28T19:04:06.329Z,7.50
2022-09-28T19:06:34.555Z,7.60
2022-09-28T19:09:02.386Z,7.40
2022-09-28T19:11:29.783Z,7.30
2022-09-28T19:13:57.217Z,7.30
2022-09-28T19:16:29.391Z,7.40
2022-09-28T19:19:02.034Z,7.40
2022-09-28T19:21:30.244Z,7.40
2022-09-28T19:24:01.070Z,7.40
2022-09-28T19:26:29.498Z,7.10
2022-09-28T19:28:57.534Z,7.10
2022-09-28T19:31:25.905Z,7.20
2022-09-28T19:33:53.187Z,7.30
2022-09-28T19:36:23.935Z,7.30
2022-09-28T19:38:52.777Z,7.20
2022-09-28T19:41:43.471Z,7.20
2022-09-28T19:44:16.731Z,7.20
2022-09-28T19:46:44.371Z,7.20
2022-09-28T19:49:14.278Z,7.20
2022-09-28T19:52:01.758Z,7.20
2022-09-28T19:54:35.523Z,7.20
2022-09-28T19:57:08.412Z,7.20
2022-09-28T19:59:37.386Z,7.20
2022-09-28T20:02:06.785Z,7.10
2022-09-28T20:04:34.503Z,7.00
2022-09-28T20:07:02.364Z,7.10
2022-09-28T20:09:29.691Z,7.10
2022-09-28T20:11:57.272Z,7.10
2022-09-28T20:14:28.163Z,7.10
2022-09-28T20:16:59.185Z,7.10
2022-09-28T20:19:26.543Z,7.10
2022-09-28T20:21:54.762Z,7.20
2022-09-28T20:24:22.019Z,7.20
2022-09-28T20:26:49.530Z,7.10
2022-09-28T20:29:17.467Z,7.00
2022-09-28T20:31:45.585Z,6.90
2022-09-28T20:34:13.229Z,7.00
2022-09-28T20:36:42.392Z,6.90
2022-09-28T20:39:10.329Z,6.80
2022-09-28T20:41:37.791Z,6.80
2022-09-28T20:44:06.809Z,6.70
2022-09-28T20:46:35.267Z,6.70
2022-09-28T20:49:03.517Z,6.60
2022-09-28T20:51:31.126Z,6.60
2022-09-28T20:53:59.362Z,6.70
2022-09-28T20:56:37.493Z,6.80
2022-09-28T20:59:10.041Z,6.90
2022-09-28T21:01:38.004Z,6.90
2022-09-28T21:04:07.158Z,6.90
2022-09-28T21:06:40.411Z,6.80
2022-09-28T21:09:09.319Z,6.70
2022-09-28T21:11:37.556Z,6.60
2022-09-28T21:14:06.540Z,6.70
2022-09-28T21:16:35.030Z,6.60
2022-09-28T21:19:02.768Z,6.50
2022-09-28T21:21:30.118Z,6.40
2022-09-28T21:23:58.251Z,6.40
2022-09-28T21:26:31.129Z,6.40
2022-09-28T21:29:04.180Z,6.40
2022-09-28T21:31:37.516Z,6.40
2022-09-28T21:34:04.930Z,6.40
2022-09-28T21:36:32.681Z,6.30
2022-09-28T21:38:59.922Z,6.20
2022-09-28T21:41:28.642Z,6.20
2022-09-28T21:43:56.037Z,6.10
2022-09-28T21:46:23.360Z,6.10
2022-09-28T21:48:54.148Z,6.10
2022-09-28T21:51:21.966Z,6.20
2022-09-28T21:53:49.330Z,6.20
2022-09-28T21:56:17.509Z,6.20
2022-09-28T21:58:44.867Z,6.00
2022-09-28T22:01:19.534Z,5.90
2022-09-28T22:03:48.403Z,5.80
2022-09-28T22:06:17.033Z,5.90
2022-09-28T22:08:45.412Z,6.10
2022-09-28T22:11:18.402Z,6.10
2022-09-28T22:13:46.805Z,6.20
2022-09-28T22:16:15.951Z,6.20
2022-09-28T22:18:43.945Z,6.20
2022-09-28T22:21:17.701Z,6.10
2022-09-28T22:23:45.156Z,6.00
2022-09-28T22:26:32.178Z,5.90
2022-09-28T22:29:07.926Z,6.00
2022-09-28T22:31:37.726Z,6.00
2022-09-28T22:34:05.881Z,5.80
2022-09-28T22:36:33.319Z,5.70
2022-09-28T22:39:00.690Z,5.60
2022-09-28T22:41:28.348Z,5.60
2022-09-28T22:43:56.040Z,5.50
2022-09-28T22:46:26.064Z,5.50
2022-09-28T22:48:56.953Z,5.50
2022-09-28T22:51:26.078Z,5.40
2022-09-28T22:53:53.512Z,5.40
2022-09-28T22:56:20.824Z,5.50
2022-09-28T22:58:48.173Z,5.50
2022-09-28T23:01:21.209Z,5.40
2022-09-28T23:03:50.329Z,5.30
2022-09-28T23:06:20.955Z,5.20
2022-09-28T23:08:50.382Z,5.10
2022-09-28T23:11:18.130Z,5.10
2022-09-28T23:13:55.861Z,5.10
2022-09-28T23:16:25.597Z,5.10
2022-09-28T23:18:54.963Z,5.10
2022-09-28T23:21:24.985Z,5.00
2022-09-28T23:23:55.269Z,5.00
2022-09-28T23:26:25.225Z,5.00
2022-09-28T23:28:53.316Z,5.00
2022-09-28T23:31:27.134Z,4.90
2022-09-28T23:33:59.622Z,4.80
2022-09-28T23:36:27.755Z,4.80
2022-09-28T23:38:55.067Z,4.90
2022-09-28T23:41:22.673Z,4.90
2022-09-28T23:43:50.021Z,4.80
2022-09-28T23:46:20.721Z,4.90
2022-09-28T23:48:49.662Z,4.90
2022-09-28T23:51:17.157Z,4.80
2022-09-28T23:53:45.177Z,4.80
2022-09-28T23:56:13.206Z,4.70
2022-09-28T23:58:40.552Z,4.70
